Time;durP1;ratioP1;P1;durP2;ratioP2;P2;SDS_P1;SDS_P2;PMS_P1;PMS_P2;Temp;Humidity;BMP_temperature;BMP_pressure;BME280_temperature;BME280_humidity;BME280_pressure;Samples;Min_cycle;Max_cycle;Signal;HPM_P1;HPM_P2
2023/12/02 00:02:13;;;;;;;38.58;17.35;;;-0.40;99.90;;;;;;4708790;30;20570;-46
2023/12/02 00:04:40;;;;;;;37.35;17.23;;;-0.30;99.90;;;;;;4695574;30;20053;-48
2023/12/02 00:07:09;;;;;;;39.28;18.77;;;-0.30;99.90;;;;;;4709950;30;20138;-45
2023/12/02 00:09:36;;;;;;;35.97;18.02;;;-0.30;99.90;;;;;;4712099;30;20118;-49
2023/12/02 00:12:03;;;;;;;36.22;17.95;;;-0.20;99.90;;;;;;4696134;30;20499;-45
2023/12/02 00:14:31;;;;;;;32.20;16.90;;;-0.20;99.90;;;;;;4710998;30;20079;-45
2023/12/02 00:16:58;;;;;;;37.10;17.80;;;-0.20;99.90;;;;;;4695262;30;20432;-43
2023/12/02 00:19:25;;;;;;;38.42;17.90;;;-0.20;99.90;;;;;;4711757;30;20049;-46
2023/12/02 00:21:52;;;;;;;40.53;18.23;;;-0.30;99.90;;;;;;4709312;30;20053;-45
2023/12/02 00:24:19;;;;;;;35.03;17.75;;;-0.30;99.90;;;;;;4711479;30;20057;-46
2023/12/02 00:26:47;;;;;;;32.35;18.55;;;-0.30;99.90;;;;;;4695810;30;20056;-45
2023/12/02 00:29:15;;;;;;;37.75;18.10;;;-0.40;99.90;;;;;;4710556;30;20424;-47
2023/12/02 00:31:42;;;;;;;37.22;17.48;;;-0.40;99.90;;;;;;4711897;30;20041;-49
2023/12/02 00:34:09;;;;;;;35.22;17.88;;;-0.40;99.90;;;;;;4679608;30;20067;-50
2023/12/02 00:36:37;;;;;;;37.95;18.58;;;-0.40;99.90;;;;;;4710752;30;20111;-49
2023/12/02 00:39:04;;;;;;;37.30;17.13;;;-0.40;99.90;;;;;;4712059;30;20095;-47
2023/12/02 00:41:31;;;;;;;38.92;18.75;;;-0.50;99.90;;;;;;4695216;30;20465;-44
2023/12/02 00:43:58;;;;;;;33.88;18.05;;;-0.50;99.90;;;;;;4711738;30;20056;-50
2023/12/02 00:46:25;;;;;;;36.25;17.55;;;-0.50;99.90;;;;;;4712927;30;20060;-46
2023/12/02 00:48:52;;;;;;;30.35;16.33;;;-0.50;99.90;;;;;;4711460;30;20092;-47
2023/12/02 00:51:20;;;;;;;36.08;17.92;;;-0.60;99.90;;;;;;4721107;30;20163;-47
2023/12/02 00:53:47;;;;;;;33.95;17.40;;;-0.60;99.90;;;;;;4713240;30;20149;-46
2023/12/02 00:56:14;;;;;;;35.00;17.13;;;-0.60;99.90;;;;;;4728452;30;20083;-43
2023/12/02 00:58:41;;;;;;;33.97;17.58;;;-0.60;99.90;;;;;;4730662;30;20144;-44
2023/12/02 01:01:09;;;;;;;37.00;17.42;;;-0.70;99.90;;;;;;4727813;30;20549;-48
2023/12/02 01:03:36;;;;;;;35.22;17.10;;;-0.60;99.90;;;;;;4714079;30;20136;-47
2023/12/02 01:06:03;;;;;;;37.22;18.33;;;-0.60;99.90;;;;;;4729359;30;20070;-46
2023/12/02 01:08:31;;;;;;;41.78;18.38;;;-0.60;99.90;;;;;;4729627;30;20048;-45
2023/12/02 01:10:58;;;;;;;33.88;16.63;;;-0.60;99.90;;;;;;4729216;30;20068;-47
2023/12/02 01:13:25;;;;;;;31.50;17.10;;;-0.50;99.90;;;;;;4724848;30;20057;-43
2023/12/02 01:15:53;;;;;;;35.58;17.60;;;-0.50;99.90;;;;;;4699795;30;20061;-49
2023/12/02 01:18:20;;;;;;;37.20;17.70;;;-0.50;99.90;;;;;;4728007;30;20049;-45
2023/12/02 01:20:47;;;;;;;34.70;16.90;;;-0.50;99.90;;;;;;4725015;30;20080;-48
2023/12/02 01:23:15;;;;;;;32.38;16.88;;;-0.50;99.90;;;;;;4712232;30;20435;-45
2023/12/02 01:25:42;;;;;;;35.70;16.35;;;-0.50;99.90;;;;;;4725763;30;20507;-43
2023/12/02 01:28:09;;;;;;;32.75;16.40;;;-0.40;99.90;;;;;;4726523;30;20068;-49
2023/12/02 01:30:36;;;;;;;32.45;16.63;;;-0.50;99.90;;;;;;4728152;30;20060;-47
2023/12/02 01:33:03;;;;;;;35.10;16.08;;;-0.40;99.90;;;;;;4708987;30;20065;-47
2023/12/02 01:35:30;;;;;;;33.22;17.05;;;-0.40;99.90;;;;;;4728410;30;20530;-50
2023/12/02 01:37:57;;;;;;;32.58;17.30;;;-0.40;99.90;;;;;;4709678;30;20128;-50
2023/12/02 01:40:25;;;;;;;30.80;16.42;;;-0.40;99.90;;;;;;4727424;30;20044;-46
2023/12/02 01:42:52;;;;;;;36.17;17.50;;;-0.40;99.90;;;;;;4709998;30;20115;-43
2023/12/02 01:45:19;;;;;;;34.28;16.65;;;-0.40;99.90;;;;;;4727339;30;20044;-45
2023/12/02 01:47:48;;;;;;;33.83;16.63;;;-0.40;99.90;;;;;;4723089;30;20110;-48
2023/12/02 01:50:18;;;;;;;32.05;16.50;;;-0.40;99.90;;;;;;4711612;30;20152;-42
2023/12/02 01:52:45;;;;;;;34.13;16.92;;;-0.40;99.90;;;;;;4712621;30;20067;-44
2023/12/02 01:55:12;;;;;;;34.70;16.70;;;-0.50;99.90;;;;;;4726285;30;20115;-46
2023/12/02 01:57:40;;;;;;;30.50;15.75;;;-0.50;99.90;;;;;;4726640;30;20060;-47
2023/12/02 02:00:09;;;;;;;30.92;15.18;;;-0.50;99.90;;;;;;4713524;30;20463;-48
2023/12/02 02:02:39;;;;;;;34.22;16.15;;;-0.50;99.90;;;;;;4720411;30;20535;-44
2023/12/02 02:05:07;;;;;;;31.70;16.40;;;-0.60;99.90;;;;;;4727560;30;20553;-48
2023/12/02 02:07:34;;;;;;;31.70;15.48;;;-0.60;99.90;;;;;;4726188;30;20036;-50
2023/12/02 02:10:02;;;;;;;33.38;16.17;;;-0.70;99.90;;;;;;4727601;30;20083;-46
2023/12/02 02:12:29;;;;;;;31.67;16.17;;;-0.70;99.90;;;;;;4726226;30;20076;-47
2023/12/02 02:14:56;;;;;;;33.65;17.08;;;-0.70;99.90;;;;;;4726194;30;20056;-45
2023/12/02 02:17:23;;;;;;;31.20;15.63;;;-0.60;99.90;;;;;;4726029;30;20056;-48
2023/12/02 02:19:50;;;;;;;31.98;15.93;;;-0.70;99.90;;;;;;4726005;30;20101;-44
2023/12/02 02:22:18;;;;;;;32.38;16.52;;;-0.70;99.90;;;;;;4726690;30;20057;-45
2023/12/02 02:24:45;;;;;;;30.02;16.33;;;-0.70;99.90;;;;;;4711510;30;20130;-44
2023/12/02 02:27:12;;;;;;;30.67;15.50;;;-0.80;99.90;;;;;;4727969;30;20079;-43
2023/12/02 02:29:39;;;;;;;32.28;16.92;;;-0.70;99.90;;;;;;4726594;30;20061;-47
2023/12/02 02:32:06;;;;;;;34.08;16.63;;;-0.70;99.90;;;;;;4727172;30;20063;-48
2023/12/02 02:34:33;;;;;;;36.08;17.75;;;-0.70;99.90;;;;;;4723742;30;20056;-46
2023/12/02 02:37:01;;;;;;;33.17;16.90;;;-0.60;99.90;;;;;;4710654;30;20456;-44
2023/12/02 02:39:28;;;;;;;35.50;16.77;;;-0.60;99.90;;;;;;4727429;30;20072;-43
2023/12/02 02:41:55;;;;;;;32.70;15.95;;;-0.70;99.90;;;;;;4725235;30;20059;-43
2023/12/02 02:44:22;;;;;;;33.63;17.17;;;-0.60;99.90;;;;;;4694774;30;20111;-45
2023/12/02 02:46:49;;;;;;;35.67;16.55;;;-0.70;99.90;;;;;;4709544;30;20057;-44
2023/12/02 02:49:17;;;;;;;34.35;17.02;;;-0.80;99.90;;;;;;4726997;30;20412;-46
2023/12/02 02:51:44;;;;;;;29.98;16.77;;;-0.70;99.90;;;;;;4727603;30;20048;-47
2023/12/02 02:54:11;;;;;;;32.38;16.58;;;-0.70;99.90;;;;;;4725203;30;20523;-46
2023/12/02 02:56:38;;;;;;;33.78;17.15;;;-0.70;99.90;;;;;;4729441;30;20122;-45
2023/12/02 02:59:05;;;;;;;31.52;16.92;;;-0.70;99.90;;;;;;4725019;30;20135;-43
2023/12/02 03:01:32;;;;;;;32.90;16.70;;;-0.70;99.90;;;;;;4728084;30;20053;-47
2023/12/02 03:03:59;;;;;;;34.05;17.20;;;-0.70;99.90;;;;;;4725362;30;20057;-44
2023/12/02 03:06:27;;;;;;;36.53;17.75;;;-0.80;99.90;;;;;;4711963;30;20073;-46
2023/12/02 03:08:54;;;;;;;33.55;16.92;;;-0.90;99.90;;;;;;4710521;30;20095;-44
2023/12/02 03:11:21;;;;;;;35.45;17.77;;;-0.90;99.90;;;;;;4727500;30;20826;-46
2023/12/02 03:13:48;;;;;;;33.38;15.70;;;-0.80;99.90;;;;;;4709225;30;20207;-45
2023/12/02 03:16:16;;;;;;;34.97;17.92;;;-0.80;99.90;;;;;;4725208;30;20052;-43
2023/12/02 03:18:43;;;;;;;30.95;16.55;;;-0.80;99.90;;;;;;4726365;30;20424;-48
2023/12/02 03:21:10;;;;;;;33.30;16.48;;;-0.80;99.90;;;;;;4709563;30;20056;-44
2023/12/02 03:23:37;;;;;;;32.75;16.48;;;-0.80;99.90;;;;;;4721184;30;20045;-46
2023/12/02 03:26:04;;;;;;;35.30;17.25;;;-1.00;99.90;;;;;;4731084;30;20114;-44
2023/12/02 03:28:31;;;;;;;36.70;17.30;;;-1.00;99.90;;;;;;4726326;30;20056;-45
2023/12/02 03:31:00;;;;;;;34.95;16.92;;;-1.00;99.90;;;;;;4726411;30;20158;-47
2023/12/02 03:33:28;;;;;;;36.42;16.63;;;-1.00;99.90;;;;;;4713584;30;20060;-45
2023/12/02 03:35:55;;;;;;;29.70;15.10;;;-1.00;99.90;;;;;;4731329;30;20114;-46
2023/12/02 03:38:22;;;;;;;35.78;17.23;;;-1.00;99.90;;;;;;4729133;30;20065;-45
2023/12/02 03:40:49;;;;;;;34.60;16.88;;;-1.10;99.90;;;;;;4713909;30;20140;-47
2023/12/02 03:43:16;;;;;;;32.60;15.95;;;-1.10;99.90;;;;;;4727936;30;20060;-44
2023/12/02 03:45:43;;;;;;;34.00;16.45;;;-1.10;99.90;;;;;;4712858;30;20495;-45
2023/12/02 03:48:11;;;;;;;34.75;16.25;;;-1.00;99.90;;;;;;4728529;30;20084;-44
2023/12/02 03:50:38;;;;;;;33.47;16.00;;;-1.00;99.90;;;;;;4727286;30;20056;-45
2023/12/02 03:53:05;;;;;;;35.20;17.17;;;-1.00;99.90;;;;;;4730009;30;20060;-44
2023/12/02 03:55:32;;;;;;;31.88;16.17;;;-1.00;99.90;;;;;;4729172;30;20056;-49
2023/12/02 03:57:59;;;;;;;32.05;16.27;;;-1.00;99.90;;;;;;4726092;30;20428;-48
2023/12/02 04:00:27;;;;;;;36.47;17.05;;;-1.00;99.90;;;;;;4730986;30;20554;-46
2023/12/02 04:02:54;;;;;;;34.92;17.42;;;-1.00;99.90;;;;;;4728162;30;20049;-46
2023/12/02 04:05:21;;;;;;;33.65;17.13;;;-1.00;99.90;;;;;;4728768;30;20048;-43
2023/12/02 04:07:49;;;;;;;34.17;18.13;;;-1.00;99.90;;;;;;4724875;30;20404;-47
2023/12/02 04:10:16;;;;;;;34.90;16.27;;;-1.00;99.90;;;;;;4731579;30;20093;-45
2023/12/02 04:12:44;;;;;;;29.95;16.20;;;-0.90;99.90;;;;;;4730253;30;20166;-48
2023/12/02 04:15:11;;;;;;;33.70;16.13;;;-0.90;99.90;;;;;;4727697;30;20379;-47
2023/12/02 04:17:38;;;;;;;37.00;17.48;;;-0.90;99.90;;;;;;4728723;30;20048;-45
2023/12/02 04:20:09;;;;;;;33.17;16.17;;;-0.90;99.90;;;;;;4699174;30;20055;-46
2023/12/02 04:22:37;;;;;;;31.65;16.05;;;-1.00;99.90;;;;;;4729245;30;20072;-50
2023/12/02 04:25:04;;;;;;;31.75;14.77;;;-1.00;99.90;;;;;;4728794;30;20049;-44
2023/12/02 04:27:31;;;;;;;30.85;14.60;;;-1.00;99.90;;;;;;4728961;30;20048;-45
2023/12/02 04:29:59;;;;;;;33.40;17.25;;;-1.00;99.90;;;;;;4726213;30;20057;-44
2023/12/02 04:32:26;;;;;;;34.55;16.45;;;-1.00;99.90;;;;;;4730589;30;20056;-46
2023/12/02 04:34:54;;;;;;;30.50;14.73;;;-1.10;99.90;;;;;;4726328;30;20057;-45
2023/12/02 04:37:24;;;;;;;34.22;16.48;;;-1.10;99.90;;;;;;4711712;30;20056;-45
2023/12/02 04:39:54;;;;;;;33.90;16.13;;;-1.10;99.90;;;;;;4728179;30;20049;-50
2023/12/02 04:42:21;;;;;;;31.30;14.68;;;-1.10;99.90;;;;;;4710549;30;20114;-48
2023/12/02 04:44:48;;;;;;;34.50;16.55;;;-1.10;99.90;;;;;;4728385;30;20069;-47
2023/12/02 04:47:16;;;;;;;30.52;14.80;;;-1.10;99.90;;;;;;4723954;30;20060;-51
2023/12/02 04:49:43;;;;;;;31.58;14.68;;;-1.10;99.90;;;;;;4727392;30;20048;-48
2023/12/02 04:52:10;;;;;;;28.98;14.95;;;-1.00;99.90;;;;;;4697524;30;20059;-50
2023/12/02 04:54:37;;;;;;;29.33;14.38;;;-1.00;99.90;;;;;;4714307;30;20063;-46
2023/12/02 04:57:04;;;;;;;30.88;14.70;;;-1.10;99.90;;;;;;4727936;30;20466;-46
2023/12/02 04:59:31;;;;;;;33.22;15.45;;;-1.20;99.90;;;;;;4708419;30;20046;-50
2023/12/02 05:01:58;;;;;;;32.65;15.63;;;-1.20;99.90;;;;;;4723996;30;20056;-48
2023/12/02 05:04:26;;;;;;;34.08;15.82;;;-1.10;99.90;;;;;;4727700;30;20048;-46
2023/12/02 05:06:53;;;;;;;29.92;15.60;;;-1.10;99.90;;;;;;4697014;30;20048;-48
2023/12/02 05:09:21;;;;;;;33.60;16.92;;;-1.10;99.90;;;;;;4711927;30;20429;-50
2023/12/02 05:11:48;;;;;;;31.75;15.07;;;-1.10;99.90;;;;;;4725400;30;20144;-46
2023/12/02 05:14:15;;;;;;;29.88;16.42;;;-1.10;99.90;;;;;;4728274;30;20053;-48
2023/12/02 05:16:43;;;;;;;36.15;17.17;;;-1.10;99.90;;;;;;4724987;30;20060;-47
2023/12/02 05:19:10;;;;;;;32.33;16.15;;;-1.10;99.90;;;;;;4729842;30;20483;-49
2023/12/02 05:21:38;;;;;;;31.23;16.58;;;-1.10;99.90;;;;;;4724424;30;20503;-47
2023/12/02 05:24:06;;;;;;;29.92;15.10;;;-1.10;99.90;;;;;;4725528;30;20127;-48
2023/12/02 05:26:33;;;;;;;30.55;16.02;;;-1.20;99.90;;;;;;4729028;30;20044;-45
2023/12/02 05:29:01;;;;;;;32.80;16.25;;;-1.10;99.90;;;;;;4727688;30;20048;-46
2023/12/02 05:31:28;;;;;;;32.55;14.85;;;-1.10;99.90;;;;;;4726894;30;20136;-49
2023/12/02 05:33:55;;;;;;;31.98;16.05;;;-1.10;99.90;;;;;;4709728;30;20060;-44
2023/12/02 05:36:23;;;;;;;29.20;15.07;;;-1.10;99.90;;;;;;4710313;30;20111;-49
2023/12/02 05:38:50;;;;;;;31.98;15.75;;;-1.20;99.90;;;;;;4728134;30;20068;-47
2023/12/02 05:41:17;;;;;;;31.52;15.20;;;-1.20;99.90;;;;;;4724767;30;20049;-45
2023/12/02 05:43:44;;;;;;;28.83;15.10;;;-1.20;99.90;;;;;;4730599;30;20591;-42
2023/12/02 05:46:17;;;;;;;28.52;14.32;;;-1.20;99.90;;;;;;4722305;30;20067;-45
2023/12/02 05:48:44;;;;;;;31.33;15.90;;;-1.30;99.90;;;;;;4703641;30;20437;-49
2023/12/02 05:51:13;;;;;;;31.08;15.07;;;-1.30;99.90;;;;;;4708678;30;20136;-47
2023/12/02 05:53:40;;;;;;;31.50;15.43;;;-1.30;99.90;;;;;;4726981;30;20060;-45
2023/12/02 05:56:08;;;;;;;28.77;15.07;;;-1.30;99.90;;;;;;4719969;30;20381;-46
2023/12/02 05:58:35;;;;;;;35.42;15.60;;;-1.30;99.90;;;;;;4721517;30;20052;-48
2023/12/02 06:01:03;;;;;;;31.88;16.23;;;-1.30;99.90;;;;;;4726514;30;20171;-46
2023/12/02 06:03:30;;;;;;;31.02;15.45;;;-1.30;99.90;;;;;;4728073;30;20407;-44
2023/12/02 06:05:57;;;;;;;32.95;16.42;;;-1.30;99.90;;;;;;4728717;30;20331;-47
2023/12/02 06:08:24;;;;;;;31.38;15.52;;;-1.20;99.90;;;;;;4725176;30;20064;-45
2023/12/02 06:10:54;;;;;;;33.97;15.50;;;-1.30;99.90;;;;;;4712519;30;20072;-45
2023/12/02 06:13:22;;;;;;;29.33;15.23;;;-1.30;99.90;;;;;;4731852;30;20084;-50
2023/12/02 06:15:49;;;;;;;32.33;15.85;;;-1.40;99.90;;;;;;4729360;30;20066;-44
2023/12/02 06:18:16;;;;;;;30.00;15.73;;;-1.30;99.90;;;;;;4727911;30;20265;-51
2023/12/02 06:20:43;;;;;;;26.63;14.50;;;-1.30;99.90;;;;;;4709494;30;20056;-46
2023/12/02 06:23:10;;;;;;;27.30;14.45;;;-1.30;99.90;;;;;;4710858;30;20061;-44
2023/12/02 06:25:37;;;;;;;28.33;15.45;;;-1.40;99.90;;;;;;4727440;30;20071;-46
2023/12/02 06:28:05;;;;;;;28.85;14.70;;;-1.50;99.90;;;;;;4713054;30;20048;-51
2023/12/02 06:30:32;;;;;;;32.92;15.95;;;-1.50;99.90;;;;;;4729062;30;20152;-47
2023/12/02 06:32:59;;;;;;;32.30;16.30;;;-1.50;99.90;;;;;;4730335;30;20948;-43
2023/12/02 06:35:26;;;;;;;31.67;16.33;;;-1.50;99.90;;;;;;4726162;30;20136;-43
2023/12/02 06:37:53;;;;;;;30.05;16.17;;;-1.50;99.90;;;;;;4722651;30;20595;-45
2023/12/02 06:40:21;;;;;;;30.60;15.15;;;-1.50;99.90;;;;;;4711464;30;20045;-50
2023/12/02 06:42:48;;;;;;;30.00;15.57;;;-1.50;99.90;;;;;;4723426;30;20045;-50
2023/12/02 06:45:15;;;;;;;36.72;16.30;;;-1.40;99.90;;;;;;4726935;30;20076;-49
2023/12/02 06:47:42;;;;;;;32.78;16.15;;;-1.40;99.90;;;;;;4723659;30;20040;-46
2023/12/02 06:50:10;;;;;;;34.22;15.93;;;-1.50;99.90;;;;;;4722519;30;20052;-46
2023/12/02 06:52:37;;;;;;;27.88;14.98;;;-1.50;99.90;;;;;;4724580;30;20365;-47
2023/12/02 06:55:07;;;;;;;27.35;15.40;;;-1.50;99.90;;;;;;4723854;30;20587;-45
2023/12/02 06:57:37;;;;;;;30.60;15.48;;;-1.50;99.90;;;;;;4724746;30;20053;-49
2023/12/02 07:00:05;;;;;;;32.40;16.23;;;-1.50;99.90;;;;;;4725456;30;20264;-49
2023/12/02 07:02:33;;;;;;;32.17;15.93;;;-1.50;99.90;;;;;;4722181;30;20045;-49
2023/12/02 07:05:00;;;;;;;31.85;15.25;;;-1.50;99.90;;;;;;4710159;30;20056;-47
2023/12/02 07:07:27;;;;;;;32.33;14.80;;;-1.50;99.90;;;;;;4725456;30;20131;-49
2023/12/02 07:09:54;;;;;;;30.83;14.32;;;-1.50;99.90;;;;;;4729165;30;20068;-44
2023/12/02 07:12:22;;;;;;;29.73;15.05;;;-1.50;99.90;;;;;;4712819;30;20102;-49
2023/12/02 07:14:49;;;;;;;31.65;14.95;;;-1.50;99.90;;;;;;4729998;30;20163;-49
2023/12/02 07:17:16;;;;;;;30.65;14.23;;;-1.50;99.90;;;;;;4722770;30;20544;-46
2023/12/02 07:19:43;;;;;;;28.27;13.90;;;-1.50;99.90;;;;;;4728452;30;20040;-50
2023/12/02 07:22:10;;;;;;;30.77;14.63;;;-1.40;99.90;;;;;;4729895;30;20044;-46
2023/12/02 07:24:37;;;;;;;30.02;14.75;;;-1.50;99.90;;;;;;4728317;30;20048;-45
2023/12/02 07:27:04;;;;;;;31.15;14.85;;;-1.40;99.90;;;;;;4729840;30;20052;-47
2023/12/02 07:29:31;;;;;;;34.22;16.00;;;-1.40;99.90;;;;;;4725960;30;20659;-44
2023/12/02 07:32:01;;;;;;;31.98;15.85;;;-1.40;99.90;;;;;;4707773;30;20060;-48
2023/12/02 07:34:28;;;;;;;32.50;14.82;;;-1.40;99.90;;;;;;4732860;30;20345;-46
2023/12/02 07:36:55;;;;;;;31.08;14.35;;;-1.40;99.90;;;;;;4728140;30;20112;-47
2023/12/02 07:39:22;;;;;;;29.55;14.80;;;-1.40;99.90;;;;;;4724970;30;20076;-43
2023/12/02 07:41:49;;;;;;;33.38;15.95;;;-1.40;99.90;;;;;;4727166;30;20048;-45
2023/12/02 07:44:17;;;;;;;36.15;16.90;;;-1.30;99.90;;;;;;4730512;30;20516;-46
2023/12/02 07:46:45;;;;;;;34.22;16.52;;;-1.30;99.90;;;;;;4730281;30;20080;-51
2023/12/02 07:49:12;;;;;;;37.35;17.67;;;-1.30;99.90;;;;;;4725819;30;20523;-44
2023/12/02 07:51:39;;;;;;;30.42;13.93;;;-1.30;99.90;;;;;;4729361;30;20061;-47
2023/12/02 07:54:06;;;;;;;30.35;14.50;;;-1.30;99.90;;;;;;4727111;30;20077;-49
2023/12/02 07:56:35;;;;;;;30.00;13.80;;;-1.30;99.90;;;;;;4712820;30;20329;-49
2023/12/02 07:59:02;;;;;;;32.05;14.65;;;-1.30;99.90;;;;;;4714950;30;20048;-45
2023/12/02 08:01:29;;;;;;;29.30;14.60;;;-1.30;99.90;;;;;;4712215;30;20059;-48
2023/12/02 08:03:57;;;;;;;26.00;13.40;;;-1.20;99.90;;;;;;4727846;30;20162;-50
2023/12/02 08:06:24;;;;;;;27.40;13.82;;;-1.20;99.90;;;;;;4730000;30;20051;-44
2023/12/02 08:08:53;;;;;;;30.00;15.55;;;-1.10;99.90;;;;;;4725665;30;20202;-46
2023/12/02 08:11:21;;;;;;;28.15;14.63;;;-1.20;99.90;;;;;;4728263;30;20045;-43
2023/12/02 08:13:48;;;;;;;27.98;13.88;;;-1.10;99.90;;;;;;4724758;30;20472;-44
2023/12/02 08:16:15;;;;;;;29.95;13.90;;;-1.10;99.90;;;;;;4730054;30;20325;-45
2023/12/02 08:18:42;;;;;;;27.65;14.85;;;-1.10;99.90;;;;;;4730141;30;20072;-47
2023/12/02 08:21:09;;;;;;;30.60;14.85;;;-1.00;99.90;;;;;;4711876;30;20367;-48
2023/12/02 08:23:36;;;;;;;26.17;13.38;;;-1.00;99.90;;;;;;4728007;30;20092;-46
2023/12/02 08:26:04;;;;;;;27.23;13.80;;;-1.00;99.90;;;;;;4729804;30;20057;-48
2023/12/02 08:28:31;;;;;;;26.05;14.18;;;-1.10;99.90;;;;;;4726108;30;20048;-46
2023/12/02 08:30:59;;;;;;;30.73;13.90;;;-1.20;99.90;;;;;;4721849;30;20139;-45
2023/12/02 08:33:26;;;;;;;29.50;13.50;;;-1.10;99.90;;;;;;4728903;30;20088;-50
2023/12/02 08:35:53;;;;;;;28.20;13.40;;;-1.10;99.90;;;;;;4710292;30;20060;-50
2023/12/02 08:38:20;;;;;;;27.52;14.15;;;-1.10;99.90;;;;;;4723680;30;20065;-47
2023/12/02 08:40:49;;;;;;;26.33;13.82;;;-1.00;99.90;;;;;;4727145;30;20048;-46
2023/12/02 08:43:16;;;;;;;26.20;13.38;;;-1.10;99.90;;;;;;4724029;30;20053;-51
2023/12/02 08:45:43;;;;;;;29.40;14.55;;;-1.10;99.90;;;;;;4728184;30;20446;-47
2023/12/02 08:48:11;;;;;;;27.08;14.02;;;-1.10;99.90;;;;;;4726863;30;20057;-48
2023/12/02 08:50:38;;;;;;;28.50;14.00;;;-1.00;99.90;;;;;;4723207;30;20072;-48
2023/12/02 08:53:06;;;;;;;27.85;13.95;;;-1.10;99.90;;;;;;4719518;30;20135;-47
2023/12/02 08:55:33;;;;;;;26.38;13.07;;;-1.20;99.90;;;;;;4722583;30;20074;-49
2023/12/02 08:58:01;;;;;;;26.77;13.55;;;-1.10;99.90;;;;;;4724891;30;20135;-42
2023/12/02 09:00:28;;;;;;;28.42;14.43;;;-1.00;99.90;;;;;;4709081;30;20060;-47
2023/12/02 09:02:55;;;;;;;29.80;13.85;;;-0.90;99.90;;;;;;4725358;30;20077;-47
2023/12/02 09:05:22;;;;;;;26.40;13.38;;;-1.10;99.90;;;;;;4723887;30;20137;-49
2023/12/02 09:07:49;;;;;;;27.80;13.65;;;-1.00;99.90;;;;;;4726533;30;20052;-48
2023/12/02 09:10:17;;;;;;;29.48;15.35;;;-1.10;99.90;;;;;;4709971;30;20595;-45
2023/12/02 09:12:44;;;;;;;28.67;13.85;;;-1.00;99.90;;;;;;4726767;30;20505;-47
2023/12/02 09:15:14;;;;;;;26.65;13.82;;;-1.10;99.90;;;;;;4710885;30;20143;-47
2023/12/02 09:17:44;;;;;;;29.48;14.63;;;-1.00;99.90;;;;;;4727424;30;20464;-48
2023/12/02 09:20:43;;;;;;;28.90;14.50;;;-0.80;99.90;;;;;;4723954;30;20089;-49
2023/12/02 09:23:11;;;;;;;26.23;14.77;;;-0.70;99.90;;;;;;4723366;30;20111;-49
2023/12/02 09:25:41;;;;;;;28.08;15.23;;;-0.70;99.90;;;;;;4709412;30;20427;-46
2023/12/02 09:28:09;;;;;;;30.60;13.98;;;-0.60;99.90;;;;;;4723447;30;20064;-44
2023/12/02 09:30:40;;;;;;;25.67;13.27;;;-0.50;99.90;;;;;;4728894;30;20084;-48
2023/12/02 09:33:07;;;;;;;21.47;10.87;;;-0.40;99.90;;;;;;4724571;30;20057;-47
2023/12/02 09:35:34;;;;;;;24.58;12.73;;;-0.50;99.90;;;;;;4705574;30;20574;-48
2023/12/02 09:38:03;;;;;;;28.85;13.68;;;-0.40;99.90;;;;;;4708169;30;20148;-46
2023/12/02 09:41:02;;;;;;;27.35;14.65;;;-0.50;99.90;;;;;;4726265;30;20052;-47
2023/12/02 09:43:32;;;;;;;25.75;13.38;;;-0.40;99.90;;;;;;4724368;30;20067;-48
2023/12/02 09:46:22;;;;;;;23.30;12.63;;;-0.30;99.90;;;;;;4723927;30;20400;-43
2023/12/02 09:49:26;;;;;;;25.75;12.50;;;-0.20;99.90;;;;;;4726411;30;20065;-48
2023/12/02 09:52:06;;;;;;;28.13;13.05;;;-0.30;99.90;;;;;;4727789;30;20062;-45
2023/12/02 09:54:54;;;;;;;25.15;11.98;;;-0.20;99.90;;;;;;4728534;30;20136;-44
2023/12/02 09:57:32;;;;;;;23.02;12.55;;;-0.20;99.90;;;;;;4729106;30;20063;-47
2023/12/02 10:00:09;;;;;;;21.70;11.70;;;-0.30;99.90;;;;;;4729210;30;20060;-50
2023/12/02 10:02:58;;;;;;;24.50;12.70;;;-0.40;99.90;;;;;;4727443;30;20052;-43
2023/12/02 10:05:26;;;;;;;24.85;12.50;;;-0.40;99.90;;;;;;4727662;30;20132;-45
2023/12/02 10:08:05;;;;;;;24.08;12.65;;;-0.60;99.90;;;;;;4726957;30;20148;-48
2023/12/02 10:10:40;;;;;;;25.52;12.60;;;-0.50;99.90;;;;;;4729013;30;20599;-48
2023/12/02 10:13:33;;;;;;;24.60;11.38;;;-0.50;99.90;;;;;;4728857;30;20075;-49
2023/12/02 10:16:05;;;;;;;25.20;13.05;;;-0.50;99.90;;;;;;4723797;30;20052;-46
2023/12/02 10:18:37;;;;;;;19.80;11.20;;;-0.40;99.90;;;;;;4726802;30;20080;-46
2023/12/02 10:21:10;;;;;;;24.25;12.57;;;-0.40;99.90;;;;;;4709708;30;20049;-46
2023/12/02 10:24:01;;;;;;;25.55;14.00;;;-0.40;99.90;;;;;;4710243;30;20055;-42
2023/12/02 10:26:38;;;;;;;23.00;11.18;;;-0.30;99.90;;;;;;4727936;30;20062;-48
2023/12/02 10:29:32;;;;;;;23.60;11.93;;;-0.30;99.90;;;;;;4723405;30;20232;-44
2023/12/02 10:32:22;;;;;;;23.17;12.10;;;-0.30;99.90;;;;;;4711057;30;20082;-43
2023/12/02 10:35:13;;;;;;;21.52;11.88;;;-0.30;99.90;;;;;;4731904;30;20048;-45
2023/12/02 10:37:41;;;;;;;22.70;11.85;;;-0.40;99.90;;;;;;4727955;30;20044;-42
2023/12/02 10:40:12;;;;;;;24.58;12.15;;;-0.40;99.90;;;;;;4729979;30;20052;-45
2023/12/02 10:43:05;;;;;;;21.40;11.05;;;-0.30;99.90;;;;;;4728844;30;20045;-47
2023/12/02 10:45:33;;;;;;;20.25;9.95;;;-0.40;99.90;;;;;;4731125;30;20126;-43
2023/12/02 10:48:02;;;;;;;19.98;10.70;;;-0.40;99.90;;;;;;4724308;30;20118;-48
2023/12/02 10:50:29;;;;;;;22.17;10.27;;;-0.50;99.90;;;;;;4708810;30;20048;-47
2023/12/02 10:53:03;;;;;;;19.70;10.30;;;-0.50;99.90;;;;;;4731012;30;20134;-46
2023/12/02 10:55:34;;;;;;;19.67;10.57;;;-0.50;99.90;;;;;;4727693;30;20132;-46
2023/12/02 10:58:05;;;;;;;18.27;10.38;;;-0.60;99.90;;;;;;4727818;30;20056;-49
2023/12/02 11:00:34;;;;;;;19.95;11.73;;;-0.50;99.90;;;;;;4730449;30;20293;-50
2023/12/02 11:03:28;;;;;;;23.40;10.75;;;-0.40;99.90;;;;;;4727946;30;20523;-44
2023/12/02 11:06:09;;;;;;;18.90;10.32;;;-0.50;99.90;;;;;;4714809;30;20177;-48
2023/12/02 11:08:47;;;;;;;16.33;8.98;;;-0.60;99.90;;;;;;4731077;30;20140;-46
2023/12/02 11:11:40;;;;;;;20.58;10.27;;;-0.70;99.90;;;;;;4713278;30;20057;-46
2023/12/02 11:14:15;;;;;;;17.20;8.68;;;-0.70;99.90;;;;;;4730256;30;20148;-44
2023/12/02 11:16:54;;;;;;;16.52;9.18;;;-0.70;99.90;;;;;;4710648;30;20610;-48
2023/12/02 11:19:40;;;;;;;17.27;9.93;;;-0.80;99.90;;;;;;4730699;30;20138;-44
2023/12/02 11:22:26;;;;;;;14.73;8.93;;;-0.80;99.90;;;;;;4727610;30;20136;-46
2023/12/02 11:25:02;;;;;;;15.13;8.60;;;-0.80;99.90;;;;;;4728595;30;20053;-48
2023/12/02 11:27:35;;;;;;;13.68;7.60;;;-1.00;99.90;;;;;;4714117;30;20488;-46
2023/12/02 11:30:24;;;;;;;15.30;8.32;;;-1.00;99.90;;;;;;4730375;30;20102;-45
2023/12/02 11:33:09;;;;;;;15.15;8.15;;;-0.90;99.90;;;;;;4727619;30;20045;-49
2023/12/02 11:35:51;;;;;;;17.25;8.27;;;-0.80;99.90;;;;;;4720154;30;20704;-48
2023/12/02 11:38:19;;;;;;;15.55;8.48;;;-0.70;99.90;;;;;;4712894;30;20052;-46
2023/12/02 11:41:04;;;;;;;15.75;9.15;;;-0.70;99.90;;;;;;4722823;30;20053;-44
2023/12/02 11:44:07;;;;;;;17.48;9.68;;;-0.70;99.90;;;;;;4727741;30;20407;-45
2023/12/02 11:46:51;;;;;;;15.65;8.52;;;-0.90;99.90;;;;;;4711904;30;20503;-50
2023/12/02 11:49:43;;;;;;;16.90;9.63;;;-0.70;99.90;;;;;;4726305;30;20388;-48
2023/12/02 11:52:32;;;;;;;16.90;9.27;;;-0.70;99.90;;;;;;4708829;30;20142;-45
2023/12/02 11:55:27;;;;;;;17.40;9.60;;;-0.60;99.90;;;;;;4706355;30;20053;-45
2023/12/02 11:58:26;;;;;;;16.77;10.10;;;-0.60;99.90;;;;;;4712752;30;20072;-46
2023/12/02 12:01:16;;;;;;;17.02;9.27;;;-0.70;99.90;;;;;;4728980;30;20048;-44
2023/12/02 12:03:46;;;;;;;17.08;8.63;;;-0.60;99.90;;;;;;4709403;30;20049;-46
2023/12/02 12:06:39;;;;;;;20.05;10.73;;;-0.60;99.90;;;;;;4728306;30;20044;-45
2023/12/02 12:09:12;;;;;;;16.80;9.70;;;-0.60;99.90;;;;;;4726194;30;20066;-47
2023/12/02 12:11:41;;;;;;;15.23;8.38;;;-0.80;99.90;;;;;;4721785;30;20067;-43
2023/12/02 12:14:10;;;;;;;14.15;8.73;;;-0.90;99.90;;;;;;4733944;30;20052;-50
2023/12/02 12:16:37;;;;;;;17.52;8.60;;;-0.90;99.90;;;;;;4724255;30;20423;-43
2023/12/02 12:19:09;;;;;;;15.57;7.72;;;-1.00;99.90;;;;;;4700826;30;20056;-46
2023/12/02 12:21:37;;;;;;;15.40;8.18;;;-0.90;99.90;;;;;;4698980;30;20053;-43
2023/12/02 12:24:04;;;;;;;14.25;8.15;;;-0.90;99.90;;;;;;4727917;30;20053;-45
2023/12/02 12:26:31;;;;;;;18.75;9.57;;;-0.90;99.90;;;;;;4713245;30;20707;-45
2023/12/02 12:29:00;;;;;;;15.90;9.00;;;-1.00;99.90;;;;;;4727453;30;20052;-45
2023/12/02 12:31:30;;;;;;;15.18;8.40;;;-0.90;99.90;;;;;;4701486;30;20056;-45
2023/12/02 12:34:03;;;;;;;16.42;8.80;;;-1.00;99.90;;;;;;4726348;30;20086;-45
2023/12/02 12:36:31;;;;;;;15.27;8.32;;;-0.90;99.90;;;;;;4719653;30;20076;-45
2023/12/02 12:38:59;;;;;;;12.85;8.23;;;-0.80;99.90;;;;;;4734601;30;20523;-44
2023/12/02 12:41:27;;;;;;;15.48;9.15;;;-0.80;99.90;;;;;;4724042;30;20469;-50
2023/12/02 12:43:54;;;;;;;15.77;9.07;;;-0.90;99.90;;;;;;4713470;30;20061;-50